sensor_id;sensor_type;location;lat;lon;timestamp;pressure;altitude;pressure_sealevel;temperature;humidity
59987;BME280;46181;51.498;5.392;2024-01-15T00:01:54;100356.5;;;6.31;63.41602
59987;BME280;46181;51.498;5.392;2024-01-15T00:06:21;100348.7;;;6.33;63.29785
59987;BME280;46181;51.498;5.392;2024-01-15T00:10:51;100341.6;;;6.29;63.30371
59987;BME280;46181;51.498;5.392;2024-01-15T00:15:22;100335.3;;;6.22;63.26855
59987;BME280;46181;51.498;5.392;2024-01-15T00:19:52;100327.7;;;6.15;63.33887
59987;BME280;46181;51.498;5.392;2024-01-15T00:24:21;100327.1;;;6.11;63.39941
59987;BME280;46181;51.498;5.392;2024-01-15T00:28:51;100326.1;;;6.04;63.39844
59987;BME280;46181;51.498;5.392;2024-01-15T00:33:22;100324.7;;;5.96;63.47656
59987;BME280;46181;51.498;5.392;2024-01-15T00:37:52;100321.6;;;5.94;63.66309
59987;BME280;46181;51.498;5.392;2024-01-15T00:42:22;100307;;;5.94;63.71777
59987;BME280;46181;51.498;5.392;2024-01-15T00:46:55;100302.6;;;5.89;63.72363
59987;BME280;46181;51.498;5.392;2024-01-15T00:51:22;100301.7;;;5.88;63.74316
59987;BME280;46181;51.498;5.392;2024-01-15T00:55:52;100289.3;;;5.85;63.7832
59987;BME280;46181;51.498;5.392;2024-01-15T01:00:23;100286;;;5.91;64.00391
59987;BME280;46181;51.498;5.392;2024-01-15T01:04:51;100286.5;;;6.01;64.00586
59987;BME280;46181;51.498;5.392;2024-01-15T01:09:22;100283.4;;;6.07;63.92676
59987;BME280;46181;51.498;5.392;2024-01-15T01:13:52;100282.3;;;6.08;63.77246
59987;BME280;46181;51.498;5.392;2024-01-15T01:18:22;100280.6;;;6.08;63.77344
59987;BME280;46181;51.498;5.392;2024-01-15T01:22:52;100273.8;;;6.09;63.78418
59987;BME280;46181;51.498;5.392;2024-01-15T01:27:22;100269.3;;;6.08;63.74023
59987;BME280;46181;51.498;5.392;2024-01-15T01:31:55;100274.3;;;6;63.69336
59987;BME280;46181;51.498;5.392;2024-01-15T01:36:22;100283.2;;;5.96;63.70996
59987;BME280;46181;51.498;5.392;2024-01-15T01:40:52;100276.1;;;5.93;63.87305
59987;BME280;46181;51.498;5.392;2024-01-15T01:45:22;100276.2;;;5.93;63.90625
59987;BME280;46181;51.498;5.392;2024-01-15T01:49:52;100280.7;;;5.9;63.8457
59987;BME280;46181;51.498;5.392;2024-01-15T01:54:22;100276.3;;;5.8;63.76465
59987;BME280;46181;51.498;5.392;2024-01-15T01:58:52;100275.7;;;5.73;63.77539
59987;BME280;46181;51.498;5.392;2024-01-15T02:03:22;100276;;;5.67;63.87891
59987;BME280;46181;51.498;5.392;2024-01-15T02:07:52;100280.4;;;5.61;63.90332
59987;BME280;46181;51.498;5.392;2024-01-15T02:12:22;100275.4;;;5.58;63.97656
59987;BME280;46181;51.498;5.392;2024-01-15T02:16:52;100275.7;;;5.55;63.9375
59987;BME280;46181;51.498;5.392;2024-01-15T02:21:22;100280.5;;;5.56;64.15137
59987;BME280;46181;51.498;5.392;2024-01-15T02:25:52;100276.4;;;5.59;64.19043
59987;BME280;46181;51.498;5.392;2024-01-15T02:30:22;100272.9;;;5.54;63.97168
59987;BME280;46181;51.498;5.392;2024-01-15T02:34:52;100270.2;;;5.51;63.93164
59987;BME280;46181;51.498;5.392;2024-01-15T02:39:22;100271;;;5.43;63.9209
59987;BME280;46181;51.498;5.392;2024-01-15T02:43:52;100267;;;5.4;63.9707
59987;BME280;46181;51.498;5.392;2024-01-15T02:48:22;100259;;;5.37;63.8125
59987;BME280;46181;51.498;5.392;2024-01-15T02:52:52;100263.3;;;5.34;63.97363
59987;BME280;46181;51.498;5.392;2024-01-15T02:57:22;100263.9;;;5.3;64.04492
59987;BME280;46181;51.498;5.392;2024-01-15T03:01:52;100266.3;;;5.3;64.08887
59987;BME280;46181;51.498;5.392;2024-01-15T03:06:22;100273.2;;;5.39;64.53711
59987;BME280;46181;51.498;5.392;2024-01-15T03:10:52;100280.5;;;5.56;64.66211
59987;BME280;46181;51.498;5.392;2024-01-15T03:15:22;100283.5;;;5.67;64.47852
59987;BME280;46181;51.498;5.392;2024-01-15T03:19:52;100274.9;;;5.64;64.10645
59987;BME280;46181;51.498;5.392;2024-01-15T03:24:22;100271.9;;;5.56;64.03906
59987;BME280;46181;51.498;5.392;2024-01-15T03:28:52;100269;;;5.51;64.09766
59987;BME280;46181;51.498;5.392;2024-01-15T03:33:22;100268.5;;;5.45;64.16797
59987;BME280;46181;51.498;5.392;2024-01-15T03:37:52;100269.9;;;5.43;64.29688
59987;BME280;46181;51.498;5.392;2024-01-15T03:42:22;100267.5;;;5.52;64.74414
59987;BME280;46181;51.498;5.392;2024-01-15T03:46:52;100260.3;;;5.62;64.54883
59987;BME280;46181;51.498;5.392;2024-01-15T03:51:24;100255;;;5.7;64.62695
59987;BME280;46181;51.498;5.392;2024-01-15T03:55:52;100252.6;;;5.82;64.49023
59987;BME280;46181;51.498;5.392;2024-01-15T04:00:23;100247.9;;;5.89;64.35645
59987;BME280;46181;51.498;5.392;2024-01-15T04:04:53;100228.3;;;5.93;64.19531
59987;BME280;46181;51.498;5.392;2024-01-15T04:09:22;100232.3;;;5.97;64.14355
59987;BME280;46181;51.498;5.392;2024-01-15T04:13:52;100234.2;;;6.01;64.11719
59987;BME280;46181;51.498;5.392;2024-01-15T04:18:22;100228.5;;;6.04;64.11133
59987;BME280;46181;51.498;5.392;2024-01-15T04:22:52;100222.2;;;6.07;64.05957
59987;BME280;46181;51.498;5.392;2024-01-15T04:27:22;100217.4;;;6.05;63.97949
59987;BME280;46181;51.498;5.392;2024-01-15T04:31:52;100218.5;;;6.05;64.02344
59987;BME280;46181;51.498;5.392;2024-01-15T04:36:22;100218;;;6.03;64.08691
59987;BME280;46181;51.498;5.392;2024-01-15T04:40:52;100217;;;6.06;64.23633
59987;BME280;46181;51.498;5.392;2024-01-15T04:45:22;100213.9;;;6.08;63.89551
59987;BME280;46181;51.498;5.392;2024-01-15T04:49:52;100213.6;;;6.02;63.58594
59987;BME280;46181;51.498;5.392;2024-01-15T04:54:22;100212.1;;;5.92;63.67188
59987;BME280;46181;51.498;5.392;2024-01-15T04:58:52;100210.3;;;5.89;63.85645
59987;BME280;46181;51.498;5.392;2024-01-15T05:03:22;100214.1;;;5.87;63.80859
59987;BME280;46181;51.498;5.392;2024-01-15T05:07:52;100208.3;;;5.82;63.82227
59987;BME280;46181;51.498;5.392;2024-01-15T05:12:22;100210;;;5.82;63.97949
59987;BME280;46181;51.498;5.392;2024-01-15T05:16:55;100206.5;;;5.84;64.03613
59987;BME280;46181;51.498;5.392;2024-01-15T05:21:22;100194.3;;;5.84;63.99219
59987;BME280;46181;51.498;5.392;2024-01-15T05:25:52;100186.4;;;5.78;63.85059
59987;BME280;46181;51.498;5.392;2024-01-15T05:30:22;100185.5;;;5.68;63.9248
59987;BME280;46181;51.498;5.392;2024-01-15T05:34:52;100182;;;5.66;64.08887
59987;BME280;46181;51.498;5.392;2024-01-15T05:39:22;100184.3;;;5.71;64.32813
59987;BME280;46181;51.498;5.392;2024-01-15T05:43:52;100173.9;;;5.79;64.36328
59987;BME280;46181;51.498;5.392;2024-01-15T05:48:22;100173;;;5.87;64.32031
59987;BME280;46181;51.498;5.392;2024-01-15T05:52:52;100172.7;;;5.96;64.2666
59987;BME280;46181;51.498;5.392;2024-01-15T05:57:22;100170.9;;;6.01;63.96191
59987;BME280;46181;51.498;5.392;2024-01-15T06:01:52;100160.2;;;5.98;63.91309
59987;BME280;46181;51.498;5.392;2024-01-15T06:06:22;100160.5;;;6.02;63.98535
59987;BME280;46181;51.498;5.392;2024-01-15T06:10:52;100159.1;;;6.04;63.91113
59987;BME280;46181;51.498;5.392;2024-01-15T06:15:22;100155.1;;;5.98;63.69043
59987;BME280;46181;51.498;5.392;2024-01-15T06:19:52;100155.5;;;5.95;63.88672
59987;BME280;46181;51.498;5.392;2024-01-15T06:24:22;100154.5;;;5.95;63.91992
59987;BME280;46181;51.498;5.392;2024-01-15T06:28:52;100154.6;;;5.94;64.04102
59987;BME280;46181;51.498;5.392;2024-01-15T06:33:22;100156.1;;;5.98;64.16895
59987;BME280;46181;51.498;5.392;2024-01-15T06:37:52;100148.8;;;6.02;64.18652
59987;BME280;46181;51.498;5.392;2024-01-15T06:42:22;100153;;;6.04;63.97656
59987;BME280;46181;51.498;5.392;2024-01-15T06:46:54;100157.5;;;6.01;63.88379
59987;BME280;46181;51.498;5.392;2024-01-15T06:51:22;100160.1;;;5.97;63.49902
59987;BME280;46181;51.498;5.392;2024-01-15T06:55:52;100156.1;;;5.89;63.55469
59987;BME280;46181;51.498;5.392;2024-01-15T07:00:23;100147.5;;;5.86;63.62891
59987;BME280;46181;51.498;5.392;2024-01-15T07:04:52;100150.6;;;5.82;63.69043
59987;BME280;46181;51.498;5.392;2024-01-15T07:09:22;100146.8;;;5.81;63.82129
59987;BME280;46181;51.498;5.392;2024-01-15T07:13:52;100150.1;;;5.82;63.91113
59987;BME280;46181;51.498;5.392;2024-01-15T07:18:22;100159.1;;;5.82;63.87793
59987;BME280;46181;51.498;5.392;2024-01-15T07:22:52;100154.4;;;5.81;63.85449
59987;BME280;46181;51.498;5.392;2024-01-15T07:27:22;100157.8;;;5.81;63.86523
59987;BME280;46181;51.498;5.392;2024-01-15T07:31:56;100156.1;;;5.76;63.92383
59987;BME280;46181;51.498;5.392;2024-01-15T07:36:22;100155.7;;;5.8;63.81934
59987;BME280;46181;51.498;5.392;2024-01-15T07:40:52;100152;;;5.8;63.93066
59987;BME280;46181;51.498;5.392;2024-01-15T07:45:22;100147.7;;;5.79;63.90723
59987;BME280;46181;51.498;5.392;2024-01-15T07:49:52;100154.9;;;5.76;63.83496
59987;BME280;46181;51.498;5.392;2024-01-15T07:54:22;100166.2;;;5.76;63.95801
59987;BME280;46181;51.498;5.392;2024-01-15T07:58:52;100177;;;5.75;63.94629
59987;BME280;46181;51.498;5.392;2024-01-15T08:03:22;100179.1;;;5.74;64.05664
59987;BME280;46181;51.498;5.392;2024-01-15T08:07:52;100181.3;;;5.78;64.05078
59987;BME280;46181;51.498;5.392;2024-01-15T08:12:22;100185;;;5.8;64.09766
59987;BME280;46181;51.498;5.392;2024-01-15T08:16:52;100186.3;;;5.82;64.15723
59987;BME280;46181;51.498;5.392;2024-01-15T08:21:22;100184;;;5.88;64.13184
59987;BME280;46181;51.498;5.392;2024-01-15T08:25:52;100188.3;;;5.91;64.03613
59987;BME280;46181;51.498;5.392;2024-01-15T08:30:23;100184.7;;;5.92;63.94922
59987;BME280;46181;51.498;5.392;2024-01-15T08:34:52;100178.9;;;5.93;63.95117
59987;BME280;46181;51.498;5.392;2024-01-15T08:39:22;100187.1;;;5.96;63.93262
59987;BME280;46181;51.498;5.392;2024-01-15T08:43:52;100193.4;;;5.96;64.11035
59987;BME280;46181;51.498;5.392;2024-01-15T08:48:22;100194.1;;;5.98;63.94629
59987;BME280;46181;51.498;5.392;2024-01-15T08:52:52;100190.2;;;5.95;63.76465
59987;BME280;46181;51.498;5.392;2024-01-15T08:57:22;100191.1;;;5.95;63.87598
59987;BME280;46181;51.498;5.392;2024-01-15T09:01:52;100193.7;;;6;64.00488
59987;BME280;46181;51.498;5.392;2024-01-15T09:06:22;100200;;;6.03;64.03125
59987;BME280;46181;51.498;5.392;2024-01-15T09:10:52;100190;;;6.05;63.91211
59987;BME280;46181;51.498;5.392;2024-01-15T09:15:22;100194.8;;;6.05;63.8457
59987;BME280;46181;51.498;5.392;2024-01-15T09:19:52;100206.3;;;6.08;63.96289
59987;BME280;46181;51.498;5.392;2024-01-15T09:24:22;100199.9;;;6.13;64.0918
59987;BME280;46181;51.498;5.392;2024-01-15T09:28:52;100201.2;;;6.18;63.95313
59987;BME280;46181;51.498;5.392;2024-01-15T09:33:22;100194.9;;;6.25;63.88672
59987;BME280;46181;51.498;5.392;2024-01-15T09:37:52;100180.9;;;6.3;63.76074
59987;BME280;46181;51.498;5.392;2024-01-15T09:42:22;100184.7;;;6.24;63.57324
59987;BME280;46181;51.498;5.392;2024-01-15T09:46:52;100193.5;;;6.15;63.52734
59987;BME280;46181;51.498;5.392;2024-01-15T09:51:22;100211;;;6.07;63.6709
59987;BME280;46181;51.498;5.392;2024-01-15T09:55:53;100220.3;;;6.02;63.7959
59987;BME280;46181;51.498;5.392;2024-01-15T10:00:23;100229.7;;;5.99;63.80176
59987;BME280;46181;51.498;5.392;2024-01-15T10:04:52;100229;;;5.93;63.83984
59987;BME280;46181;51.498;5.392;2024-01-15T10:09:22;100225.2;;;5.92;64.04785
59987;BME280;46181;51.498;5.392;2024-01-15T10:13:52;100232;;;6.1;64.52148
59987;BME280;46181;51.498;5.392;2024-01-15T10:18:22;100217.3;;;6.19;64.21191
59987;BME280;46181;51.498;5.392;2024-01-15T10:22:54;100209.4;;;6.2;64.12305
59987;BME280;46181;51.498;5.392;2024-01-15T10:27:22;100200.2;;;6.29;64.16992
59987;BME280;46181;51.498;5.392;2024-01-15T10:31:52;100204.3;;;6.35;64.08984
59987;BME280;46181;51.498;5.392;2024-01-15T10:36:22;100207.9;;;6.43;64.12598
59987;BME280;46181;51.498;5.392;2024-01-15T10:40:55;100210.5;;;6.59;64.24902
59987;BME280;46181;51.498;5.392;2024-01-15T10:45:22;100209.9;;;6.58;63.79102
59987;BME280;46181;51.498;5.392;2024-01-15T10:49:52;100212;;;6.58;63.90234
59987;BME280;46181;51.498;5.392;2024-01-15T10:54:22;100212.6;;;6.64;63.86719
59987;BME280;46181;51.498;5.392;2024-01-15T10:58:52;100209.6;;;6.62;63.8291
59987;BME280;46181;51.498;5.392;2024-01-15T11:03:22;100208.8;;;6.59;63.66992
59987;BME280;46181;51.498;5.392;2024-01-15T11:07:52;100202.7;;;6.49;63.61035
59987;BME280;46181;51.498;5.392;2024-01-15T11:12:22;100213.3;;;6.44;63.76953
59987;BME280;46181;51.498;5.392;2024-01-15T11:17:07;100229.3;;;6.53;64.52734
59987;BME280;46181;51.498;5.392;2024-01-15T11:21:35;100223.7;;;6.86;64.82324
59987;BME280;46181;51.498;5.392;2024-01-15T11:25:53;100231.4;;;7.3;64.06445
59987;BME280;46181;51.498;5.392;2024-01-15T11:30:24;100235.4;;;7.29;63.07031
59987;BME280;46181;51.498;5.392;2024-01-15T11:35:08;100235.5;;;6.96;62.29688
59987;BME280;46181;51.498;5.392;2024-01-15T11:43:52;100225.7;;;6.57;62.36328
59987;BME280;46181;51.498;5.392;2024-01-15T11:48:23;100230.6;;;6.43;62.66797
59987;BME280;46181;51.498;5.392;2024-01-15T11:52:59;100236.8;;;6.33;63.25293
59987;BME280;46181;51.498;5.392;2024-01-15T11:57:25;100234;;;6.43;63.39063
59987;BME280;46181;51.498;5.392;2024-01-15T12:01:52;100248.9;;;6.57;63.47656
59987;BME280;46181;51.498;5.392;2024-01-15T12:06:23;100246;;;6.69;63.75195
59987;BME280;46181;51.498;5.392;2024-01-15T12:10:52;100241.8;;;6.84;63.59375
59987;BME280;46181;51.498;5.392;2024-01-15T12:15:23;100239.2;;;6.86;63.39648
59987;BME280;46181;51.498;5.392;2024-01-15T12:19:52;100233.7;;;7;63.46289
59987;BME280;46181;51.498;5.392;2024-01-15T12:24:22;100246.3;;;7.13;63.23633
59987;BME280;46181;51.498;5.392;2024-01-15T12:28:53;100257.3;;;7.13;62.96875
59987;BME280;46181;51.498;5.392;2024-01-15T12:33:22;100247.8;;;7.08;62.90625
59987;BME280;46181;51.498;5.392;2024-01-15T12:37:53;100258;;;7.08;62.84961
59987;BME280;46181;51.498;5.392;2024-01-15T12:42:22;100262;;;7.08;62.98438
59987;BME280;46181;51.498;5.392;2024-01-15T12:46:52;100270.7;;;7.2;63.02246
59987;BME280;46181;51.498;5.392;2024-01-15T12:51:27;100271.3;;;7.28;62.91309
59987;BME280;46181;51.498;5.392;2024-01-15T12:55:52;100283.6;;;7.43;62.74414
59987;BME280;46181;51.498;5.392;2024-01-15T13:00:23;100298.7;;;7.38;62.32324
59987;BME280;46181;51.498;5.392;2024-01-15T13:04:52;100295.4;;;7.13;61.30664
59987;BME280;46181;51.498;5.392;2024-01-15T13:09:22;100303.7;;;6.83;61.20801
59987;BME280;46181;51.498;5.392;2024-01-15T13:13:52;100306.4;;;6.6;61.63281
59987;BME280;46181;51.498;5.392;2024-01-15T13:18:22;100300.8;;;6.43;62.00879
59987;BME280;46181;51.498;5.392;2024-01-15T13:22:52;100303.7;;;6.34;62.31934
59987;BME280;46181;51.498;5.392;2024-01-15T13:27:22;100300.3;;;6.32;62.53906
59987;BME280;46181;51.498;5.392;2024-01-15T13:31:52;100308;;;6.35;62.56543
59987;BME280;46181;51.498;5.392;2024-01-15T13:36:22;100309.8;;;6.3;62.55859
59987;BME280;46181;51.498;5.392;2024-01-15T13:40:52;100308.5;;;6.32;62.87207
59987;BME280;46181;51.498;5.392;2024-01-15T13:45:22;100313.8;;;6.45;62.80371
59987;BME280;46181;51.498;5.392;2024-01-15T13:49:52;100313.5;;;6.53;62.58984
59987;BME280;46181;51.498;5.392;2024-01-15T13:54:22;100317.5;;;6.53;62.36914
59987;BME280;46181;51.498;5.392;2024-01-15T13:58:52;100316.8;;;6.43;62.29883
59987;BME280;46181;51.498;5.392;2024-01-15T14:03:22;100317.2;;;6.33;62.54004
59987;BME280;46181;51.498;5.392;2024-01-15T14:07:52;100317.9;;;6.2;62.66699
59987;BME280;46181;51.498;5.392;2024-01-15T14:12:22;100324.1;;;6.09;62.9502
59987;BME280;46181;51.498;5.392;2024-01-15T14:16:52;100325.7;;;6.02;63.18457
59987;BME280;46181;51.498;5.392;2024-01-15T14:21:22;100329.5;;;5.98;63.3457
59987;BME280;46181;51.498;5.392;2024-01-15T14:25:52;100337.2;;;6.03;63.65234
59987;BME280;46181;51.498;5.392;2024-01-15T14:30:23;100344;;;6.3;63.9375
59987;BME280;46181;51.498;5.392;2024-01-15T14:34:52;100362.5;;;6.58;63.08789
59987;BME280;46181;51.498;5.392;2024-01-15T14:39:22;100369.9;;;6.55;62.66113
59987;BME280;46181;51.498;5.392;2024-01-15T14:43:52;100362.4;;;6.48;62.5498
59987;BME280;46181;51.498;5.392;2024-01-15T14:48:22;100367.9;;;6.36;62.51074
59987;BME280;46181;51.498;5.392;2024-01-15T14:52:52;100370.6;;;6.21;62.76855
59987;BME280;46181;51.498;5.392;2024-01-15T14:57:22;100388.9;;;6.15;63.12793
59987;BME280;46181;51.498;5.392;2024-01-15T15:01:52;100398.8;;;6.1;63.24219
59987;BME280;46181;51.498;5.392;2024-01-15T15:06:22;100408.4;;;6.14;63.60352
59987;BME280;46181;51.498;5.392;2024-01-15T15:10:52;100433.1;;;6.23;63.5166
59987;BME280;46181;51.498;5.392;2024-01-15T15:15:22;100426.2;;;6.27;63.22168
59987;BME280;46181;51.498;5.392;2024-01-15T15:19:52;100420.4;;;6.23;63.01465
59987;BME280;46181;51.498;5.392;2024-01-15T15:24:22;100424.8;;;6.07;63.05859
59987;BME280;46181;51.498;5.392;2024-01-15T15:28:52;100421.6;;;5.95;63.23047
59987;BME280;46181;51.498;5.392;2024-01-15T15:33:22;100423.7;;;5.86;63.40625
59987;BME280;46181;51.498;5.392;2024-01-15T15:37:52;100425.2;;;5.77;63.60449
59987;BME280;46181;51.498;5.392;2024-01-15T15:42:22;100430.4;;;5.72;63.73145
59987;BME280;46181;51.498;5.392;2024-01-15T15:46:52;100441.8;;;5.67;63.82324
59987;BME280;46181;51.498;5.392;2024-01-15T15:51:22;100439.3;;;5.61;63.89355
59987;BME280;46181;51.498;5.392;2024-01-15T15:55:52;100447.9;;;5.59;63.94434
59987;BME280;46181;51.498;5.392;2024-01-15T16:00:23;100456.3;;;5.54;63.96973
59987;BME280;46181;51.498;5.392;2024-01-15T16:04:52;100465.3;;;5.51;64.08789
59987;BME280;46181;51.498;5.392;2024-01-15T16:09:22;100470.8;;;5.56;64.24023
59987;BME280;46181;51.498;5.392;2024-01-15T16:13:52;100475.8;;;5.57;64.06445
59987;BME280;46181;51.498;5.392;2024-01-15T16:18:22;100491.4;;;5.51;63.95313
59987;BME280;46181;51.498;5.392;2024-01-15T16:22:52;100495.1;;;5.43;63.94238
59987;BME280;46181;51.498;5.392;2024-01-15T16:27:22;100510.5;;;5.42;64.09668
59987;BME280;46181;51.498;5.392;2024-01-15T16:31:54;100512.6;;;5.53;64.39063
59987;BME280;46181;51.498;5.392;2024-01-15T16:36:22;100501.2;;;5.61;64.09277
59987;BME280;46181;51.498;5.392;2024-01-15T16:40:52;100505.7;;;5.53;63.99121
59987;BME280;46181;51.498;5.392;2024-01-15T16:45:22;100519.3;;;5.48;63.92773
59987;BME280;46181;51.498;5.392;2024-01-15T16:49:52;100526.9;;;5.41;63.99609
59987;BME280;46181;51.498;5.392;2024-01-15T16:54:22;100530.7;;;5.38;64.04688
59987;BME280;46181;51.498;5.392;2024-01-15T16:58:52;100536;;;5.35;64.10938
59987;BME280;46181;51.498;5.392;2024-01-15T17:03:22;100534.1;;;5.35;64.20801
59987;BME280;46181;51.498;5.392;2024-01-15T17:07:52;100534.5;;;5.33;64.15039
59987;BME280;46181;51.498;5.392;2024-01-15T17:12:23;100541.9;;;5.3;64.10156
59987;BME280;46181;51.498;5.392;2024-01-15T17:16:52;100544.4;;;5.28;64.08691
59987;BME280;46181;51.498;5.392;2024-01-15T17:21:22;100557.2;;;5.25;64.14941
59987;BME280;46181;51.498;5.392;2024-01-15T17:25:52;100560.4;;;5.23;64.13379
59987;BME280;46181;51.498;5.392;2024-01-15T17:30:22;100568.8;;;5.24;64.12598
59987;BME280;46181;51.498;5.392;2024-01-15T17:34:52;100567.2;;;5.21;64.14258
59987;BME280;46181;51.498;5.392;2024-01-15T17:39:22;100574.6;;;5.21;64.25391
59987;BME280;46181;51.498;5.392;2024-01-15T17:43:52;100576.1;;;5.23;64.20215
59987;BME280;46181;51.498;5.392;2024-01-15T17:48:22;100586.8;;;5.21;64.11035
59987;BME280;46181;51.498;5.392;2024-01-15T17:52:52;100593.8;;;5.2;64.20898
59987;BME280;46181;51.498;5.392;2024-01-15T17:57:22;100599.1;;;5.2;64.12988
59987;BME280;46181;51.498;5.392;2024-01-15T18:01:52;100592.8;;;5.15;64.08984
59987;BME280;46181;51.498;5.392;2024-01-15T18:06:24;100593.8;;;5.11;64.10645
59987;BME280;46181;51.498;5.392;2024-01-15T18:10:52;100599.1;;;5.11;64.14063
59987;BME280;46181;51.498;5.392;2024-01-15T18:15:22;100603.9;;;5.14;64.2998
59987;BME280;46181;51.498;5.392;2024-01-15T18:19:52;100613.5;;;5.21;64.24414
59987;BME280;46181;51.498;5.392;2024-01-15T18:24:22;100636.5;;;5.19;64.13965
59987;BME280;46181;51.498;5.392;2024-01-15T18:28:52;100651.7;;;5.21;64.28711
59987;BME280;46181;51.498;5.392;2024-01-15T18:33:22;100653.8;;;5.29;64.43164
59987;BME280;46181;51.498;5.392;2024-01-15T18:37:52;100670.4;;;5.43;64.41895
59987;BME280;46181;51.498;5.392;2024-01-15T18:42:22;100667.3;;;5.5;64.18652
59987;BME280;46181;51.498;5.392;2024-01-15T18:46:52;100664.3;;;5.45;63.94531
59987;BME280;46181;51.498;5.392;2024-01-15T18:51:31;100670.9;;;5.32;63.99316
59987;BME280;46181;51.498;5.392;2024-01-15T18:55:52;100670.4;;;5.31;63.89258
59987;BME280;46181;51.498;5.392;2024-01-15T19:00:23;100675.5;;;5.24;63.95898
59987;BME280;46181;51.498;5.392;2024-01-15T19:04:52;100676.7;;;5.22;64.0791
59987;BME280;46181;51.498;5.392;2024-01-15T19:09:22;100682.7;;;5.26;64.18555
59987;BME280;46181;51.498;5.392;2024-01-15T19:13:52;100676.9;;;5.35;64.35449
59987;BME280;46181;51.498;5.392;2024-01-15T19:18:22;100700.4;;;5.46;64.28125
59987;BME280;46181;51.498;5.392;2024-01-15T19:22:52;100709.3;;;5.57;64.27539
59987;BME280;46181;51.498;5.392;2024-01-15T19:27:22;100710.5;;;5.63;63.99609
59987;BME280;46181;51.498;5.392;2024-01-15T19:31:52;100712.6;;;5.67;63.92285
59987;BME280;46181;51.498;5.392;2024-01-15T19:36:27;100711.3;;;5.67;63.90137
59987;BME280;46181;51.498;5.392;2024-01-15T19:40:52;100708.5;;;5.71;63.82715
59987;BME280;46181;51.498;5.392;2024-01-15T19:45:23;100720.9;;;5.73;63.69824
59987;BME280;46181;51.498;5.392;2024-01-15T19:49:52;100719.5;;;5.72;63.78516
59987;BME280;46181;51.498;5.392;2024-01-15T19:54:22;100719;;;5.77;63.88281
59987;BME280;46181;51.498;5.392;2024-01-15T19:58:52;100716.3;;;5.83;63.76855
59987;BME280;46181;51.498;5.392;2024-01-15T20:03:22;100715.3;;;5.81;63.64355
59987;BME280;46181;51.498;5.392;2024-01-15T20:07:52;100713.8;;;5.75;63.62305
59987;BME280;46181;51.498;5.392;2024-01-15T20:12:22;100719.1;;;5.74;63.68945
59987;BME280;46181;51.498;5.392;2024-01-15T20:16:52;100728.9;;;5.73;63.60938
59987;BME280;46181;51.498;5.392;2024-01-15T20:21:22;100727;;;5.66;63.66504
59987;BME280;46181;51.498;5.392;2024-01-15T20:25:57;100733;;;5.59;63.65723
59987;BME280;46181;51.498;5.392;2024-01-15T20:30:23;100734.3;;;5.48;63.60547
59987;BME280;46181;51.498;5.392;2024-01-15T20:34:52;100742.8;;;5.4;63.72754
59987;BME280;46181;51.498;5.392;2024-01-15T20:39:22;100740.1;;;5.41;63.94043
59987;BME280;46181;51.498;5.392;2024-01-15T20:43:52;100744.3;;;5.46;63.95801
59987;BME280;46181;51.498;5.392;2024-01-15T20:48:22;100750.5;;;5.48;63.91797
59987;BME280;46181;51.498;5.392;2024-01-15T20:52:52;100749.3;;;5.43;63.77441
59987;BME280;46181;51.498;5.392;2024-01-15T20:57:22;100759.6;;;5.36;63.77637
59987;BME280;46181;51.498;5.392;2024-01-15T21:01:53;100767.9;;;5.36;64.02051
59987;BME280;46181;51.498;5.392;2024-01-15T21:06:22;100774.9;;;5.48;64.18359
59987;BME280;46181;51.498;5.392;2024-01-15T21:10:52;100769;;;5.51;63.91016
59987;BME280;46181;51.498;5.392;2024-01-15T21:15:23;100766.6;;;5.48;63.81641
59987;BME280;46181;51.498;5.392;2024-01-15T21:19:52;100776.7;;;5.42;63.75293
59987;BME280;46181;51.498;5.392;2024-01-15T21:24:22;100778.4;;;5.42;63.99707
59987;BME280;46181;51.498;5.392;2024-01-15T21:28:52;100787.2;;;5.52;64.14453
59987;BME280;46181;51.498;5.392;2024-01-15T21:33:23;100795;;;5.64;64.1084
59987;BME280;46181;51.498;5.392;2024-01-15T21:37:52;100791.3;;;5.73;63.93164
59987;BME280;46181;51.498;5.392;2024-01-15T21:42:22;100797.8;;;5.76;63.84766
59987;BME280;46181;51.498;5.392;2024-01-15T21:46:52;100784.9;;;5.8;63.74219
59987;BME280;46181;51.498;5.392;2024-01-15T21:51:23;100790.3;;;5.79;63.67383
59987;BME280;46181;51.498;5.392;2024-01-15T21:55:52;100799.1;;;5.75;63.64453
59987;BME280;46181;51.498;5.392;2024-01-15T22:00:24;100798.1;;;5.68;63.72363
59987;BME280;46181;51.498;5.392;2024-01-15T22:04:52;100807.4;;;5.73;63.94238
59987;BME280;46181;51.498;5.392;2024-01-15T22:09:22;100808;;;5.79;63.87402
59987;BME280;46181;51.498;5.392;2024-01-15T22:13:52;100808.3;;;5.82;63.7666
59987;BME280;46181;51.498;5.392;2024-01-15T22:18:22;100809.6;;;5.85;63.77246
59987;BME280;46181;51.498;5.392;2024-01-15T22:22:52;100814.8;;;5.85;63.59473
59987;BME280;46181;51.498;5.392;2024-01-15T22:27:22;100809;;;5.72;63.46289
59987;BME280;46181;51.498;5.392;2024-01-15T22:31:52;100817.9;;;5.64;63.56348
59987;BME280;46181;51.498;5.392;2024-01-15T22:36:22;100827.4;;;5.58;63.68652
59987;BME280;46181;51.498;5.392;2024-01-15T22:40:52;100833.8;;;5.51;63.74414
59987;BME280;46181;51.498;5.392;2024-01-15T22:45:22;100845.4;;;5.52;64.00098
59987;BME280;46181;51.498;5.392;2024-01-15T22:49:52;100843.4;;;5.58;64.07617
59987;BME280;46181;51.498;5.392;2024-01-15T22:54:22;100842.6;;;5.6;63.92383
59987;BME280;46181;51.498;5.392;2024-01-15T22:58:52;100840.8;;;5.56;63.81836
59987;BME280;46181;51.498;5.392;2024-01-15T23:03:22;100851.3;;;5.51;63.83105
59987;BME280;46181;51.498;5.392;2024-01-15T23:07:52;100857.4;;;5.51;63.95313
59987;BME280;46181;51.498;5.392;2024-01-15T23:12:22;100858.7;;;5.49;63.8623
59987;BME280;46181;51.498;5.392;2024-01-15T23:16:52;100858;;;5.4;63.81543
59987;BME280;46181;51.498;5.392;2024-01-15T23:21:22;100854.5;;;5.33;63.89648
59987;BME280;46181;51.498;5.392;2024-01-15T23:25:52;100856.7;;;5.33;64.02832